createdAt,value
2022-11-11T00:02:37.711Z,102358.44
2022-11-11T00:06:39.199Z,102358.25
2022-11-11T00:10:40.734Z,102354.63
2022-11-11T00:14:42.168Z,102351.44
2022-11-11T00:19:03.716Z,102346.94
2022-11-11T00:23:23.919Z,102354.59
2022-11-11T00:27:25.368Z,102371.28
2022-11-11T00:31:26.838Z,102364.94
2022-11-11T00:35:46.770Z,102385.31
2022-11-11T00:39:48.168Z,102378.22
2022-11-11T00:43:49.634Z,102376.28
2022-11-11T00:48:09.352Z,102387.13
2022-11-11T00:52:10.804Z,102378.22
2022-11-11T00:56:12.397Z,102385.31
2022-11-11T01:00:14.428Z,102373.66
2022-11-11T01:04:15.990Z,102371.56
2022-11-11T01:08:17.451Z,102377.50
2022-11-11T01:12:19.033Z,102367.63
2022-11-11T01:16:23.077Z,102345.84
2022-11-11T01:20:24.689Z,102338.63
2022-11-11T01:24:26.498Z,102340.00
2022-11-11T01:28:28.344Z,102345.63
2022-11-11T01:32:30.151Z,102330.63
2022-11-11T01:36:31.647Z,102340.25
2022-11-11T01:40:44.600Z,102336.44
2022-11-11T01:44:47.936Z,102338.09
2022-11-11T01:49:11.597Z,102358.00
2022-11-11T01:53:13.167Z,102362.31
2022-11-11T01:57:25.060Z,102361.00
2022-11-11T02:01:26.814Z,102357.41
2022-11-11T02:05:45.410Z,102356.19
2022-11-11T02:09:48.707Z,102365.75
2022-11-11T02:14:08.841Z,102364.31
2022-11-11T02:18:11.066Z,102382.53
2022-11-11T02:22:23.851Z,102387.59
2022-11-11T02:26:26.949Z,102388.13
2022-11-11T02:30:28.390Z,102392.22
2022-11-11T02:34:32.801Z,102397.16
2022-11-11T02:38:34.388Z,102396.50
2022-11-11T02:42:36.630Z,102397.31
2022-11-11T02:46:38.196Z,102396.50
2022-11-11T02:50:39.752Z,102392.31
2022-11-11T02:54:43.315Z,102385.66
2022-11-11T02:58:44.933Z,102384.78
2022-11-11T03:02:46.689Z,102390.22
2022-11-11T03:06:48.404Z,102389.41
2022-11-11T03:10:50.123Z,102400.38
2022-11-11T03:14:51.994Z,102396.19
2022-11-11T03:18:53.602Z,102391.97
2022-11-11T03:23:15.483Z,102395.91
2022-11-11T03:27:17.099Z,102388.25
2022-11-11T03:31:18.647Z,102383.63
2022-11-11T03:35:20.085Z,102373.31
2022-11-11T03:39:21.584Z,102374.66
2022-11-11T03:43:28.263Z,102374.56
2022-11-11T03:47:29.796Z,102358.22
2022-11-11T03:51:31.212Z,102360.22
2022-11-11T03:55:32.650Z,102350.09
2022-11-11T03:59:34.095Z,102349.66
2022-11-11T04:03:54.027Z,102344.09
2022-11-11T04:08:13.880Z,102351.53
2022-11-11T04:12:15.342Z,102343.09
2022-11-11T04:16:16.834Z,102344.97
2022-11-11T04:20:36.558Z,102362.41
2022-11-11T04:25:16.174Z,102350.25
2022-11-11T04:29:29.533Z,102343.75
2022-11-11T04:33:30.998Z,102343.25
2022-11-11T04:37:35.132Z,102349.13
2022-11-11T04:42:01.648Z,102350.94
2022-11-11T04:45:59.254Z,102341.75
2022-11-11T04:50:06.779Z,102356.06
2022-11-11T04:54:08.756Z,102359.72
2022-11-11T04:58:10.444Z,102361.91
2022-11-11T05:02:30.496Z,102361.53
2022-11-11T05:06:52.755Z,102352.06
2022-11-11T05:10:54.380Z,102356.06
2022-11-11T05:15:14.341Z,102357.03
2022-11-11T05:19:34.727Z,102360.03
2022-11-11T05:23:54.592Z,102352.88
2022-11-11T05:27:57.701Z,102352.78
2022-11-11T05:31:59.168Z,102369.88
2022-11-11T05:36:00.624Z,102375.91
2022-11-11T05:40:02.132Z,102378.91
2022-11-11T05:44:03.693Z,102390.03
2022-11-11T05:48:05.425Z,102410.81
2022-11-11T05:52:07.684Z,102422.53
2022-11-11T05:56:09.122Z,102414.78
2022-11-11T06:00:11.236Z,102408.78
2022-11-11T06:04:17.903Z,102406.72
2022-11-11T06:08:19.947Z,102401.06
2022-11-11T06:12:21.386Z,102423.88
2022-11-11T06:16:23.431Z,102421.56
2022-11-11T06:20:24.936Z,102424.19
2022-11-11T06:24:27.103Z,102424.94
2022-11-11T06:28:28.676Z,102440.00
2022-11-11T06:32:30.268Z,102437.31
2022-11-11T06:36:31.732Z,102425.97
2022-11-11T06:40:33.509Z,102431.19
2022-11-11T06:44:34.936Z,102428.50
2022-11-11T06:48:37.582Z,102436.94
2022-11-11T06:52:39.049Z,102429.56
2022-11-11T06:56:40.546Z,102424.19
2022-11-11T07:00:42.988Z,102426.44
2022-11-11T07:04:44.520Z,102418.66
2022-11-11T07:08:46.022Z,102428.75
2022-11-11T07:12:47.575Z,102432.16
2022-11-11T07:16:48.990Z,102431.25
2022-11-11T07:20:50.445Z,102439.69
2022-11-11T07:24:52.039Z,102449.88
2022-11-11T07:28:53.565Z,102438.13
2022-11-11T07:32:55.178Z,102434.09
2022-11-11T07:36:56.859Z,102436.50
2022-11-11T07:40:58.310Z,102439.78
2022-11-11T07:44:59.767Z,102445.38
2022-11-11T07:49:01.293Z,102456.13
2022-11-11T07:53:02.732Z,102462.66
2022-11-11T07:57:04.253Z,102471.00
2022-11-11T08:01:08.771Z,102469.47
2022-11-11T08:05:10.715Z,102473.72
2022-11-11T08:09:12.154Z,102468.72
2022-11-11T08:13:45.914Z,102470.88
2022-11-11T08:17:47.386Z,102484.03
2022-11-11T08:21:48.830Z,102504.03
2022-11-11T08:25:50.277Z,102481.50
2022-11-11T08:29:51.736Z,102488.13
2022-11-11T08:33:54.415Z,102496.00
2022-11-11T08:37:55.897Z,102494.06
2022-11-11T08:41:57.330Z,102500.56
2022-11-11T08:46:04.102Z,102492.50
2022-11-11T08:50:06.743Z,102505.09
2022-11-11T08:54:08.303Z,102510.13
2022-11-11T08:58:10.843Z,102516.69
2022-11-11T09:02:13.413Z,102509.97
2022-11-11T09:06:15.113Z,102525.59
2022-11-11T09:10:16.846Z,102530.94
2022-11-11T09:14:18.284Z,102529.72
2022-11-11T09:18:20.081Z,102541.56
2022-11-11T09:22:21.498Z,102536.88
2022-11-11T09:26:23.039Z,102541.19
2022-11-11T09:30:30.546Z,102540.31
2022-11-11T09:34:32.052Z,102546.34
2022-11-11T09:38:33.507Z,102548.72
2022-11-11T09:42:42.824Z,102549.97
2022-11-11T09:47:01.390Z,102554.59
2022-11-11T09:51:05.488Z,102562.69
2022-11-11T09:55:19.408Z,102564.63
2022-11-11T09:59:36.399Z,102569.84
2022-11-11T10:03:49.847Z,102562.91
2022-11-11T10:07:58.662Z,102561.81
2022-11-11T10:12:06.179Z,102576.63
2022-11-11T10:16:21.048Z,102578.69
2022-11-11T10:20:31.978Z,102580.72
2022-11-11T10:24:43.603Z,102580.41
2022-11-11T10:28:52.864Z,102580.66
2022-11-11T10:33:26.296Z,102575.75
2022-11-11T10:37:40.167Z,102572.03
2022-11-11T10:41:49.510Z,102580.38
2022-11-11T10:46:01.458Z,102577.66
2022-11-11T10:50:13.845Z,102577.22
2022-11-11T10:54:23.032Z,102575.53
2022-11-11T10:58:53.626Z,102572.59
2022-11-11T11:02:56.394Z,102563.50
2022-11-11T11:07:00.473Z,102569.56
2022-11-11T11:11:08.534Z,102555.03
2022-11-11T11:15:23.082Z,102560.28
2022-11-11T11:19:26.638Z,102562.31
2022-11-11T11:23:47.028Z,102545.38
2022-11-11T11:27:50.958Z,102541.41
2022-11-11T11:31:53.219Z,102534.19
2022-11-11T11:35:54.722Z,102538.41
2022-11-11T11:40:01.592Z,102536.78
2022-11-11T11:44:03.035Z,102530.09
2022-11-11T11:48:41.603Z,102518.44
2022-11-11T11:53:15.290Z,102522.22
2022-11-11T11:57:41.596Z,102512.13
2022-11-11T12:01:51.807Z,102516.25
2022-11-11T12:06:14.044Z,102520.50
2022-11-11T12:10:28.404Z,102522.44
2022-11-11T12:14:50.368Z,102522.94
2022-11-11T12:19:15.280Z,102526.00
2022-11-11T12:23:29.050Z,102516.06
2022-11-11T12:27:54.293Z,102509.03
2022-11-11T12:32:21.525Z,102512.31
2022-11-11T12:36:55.053Z,102510.19
2022-11-11T12:41:27.848Z,102521.47
2022-11-11T12:45:40.838Z,102523.78
2022-11-11T12:49:56.934Z,102516.25
2022-11-11T12:54:04.325Z,102520.97
2022-11-11T12:58:38.033Z,102508.75
2022-11-11T13:03:04.838Z,102510.06
2022-11-11T13:07:32.355Z,102514.59
2022-11-11T13:12:17.965Z,102501.19
2022-11-11T13:16:23.639Z,102502.47
2022-11-11T13:20:56.924Z,102498.56
2022-11-11T13:25:04.774Z,102514.94
2022-11-11T13:29:28.986Z,102501.84
2022-11-11T13:33:48.999Z,102502.84
2022-11-11T13:37:50.853Z,102495.75
2022-11-11T13:41:55.287Z,102490.91
2022-11-11T13:45:59.690Z,102495.31
2022-11-11T13:50:09.649Z,102490.72
2022-11-11T13:54:34.659Z,102504.16
2022-11-11T13:58:47.289Z,102502.00
2022-11-11T14:03:10.175Z,102498.59
2022-11-11T14:07:49.475Z,102496.44
2022-11-11T14:11:50.981Z,102497.59
2022-11-11T14:15:54.307Z,102498.75
2022-11-11T14:19:55.918Z,102499.53
2022-11-11T14:23:57.407Z,102492.84
2022-11-11T14:27:58.882Z,102498.75
2022-11-11T14:32:22.460Z,102501.81
2022-11-11T14:36:46.290Z,102504.59
2022-11-11T14:40:48.130Z,102506.75
2022-11-11T14:44:49.690Z,102503.78
2022-11-11T14:48:51.164Z,102509.19
2022-11-11T14:52:54.222Z,102511.81
2022-11-11T14:57:03.358Z,102517.03
2022-11-11T15:01:15.592Z,102509.00
2022-11-11T15:05:25.507Z,102523.53
2022-11-11T15:09:38.989Z,102518.28
2022-11-11T15:14:04.768Z,102514.50
2022-11-11T15:18:14.355Z,102522.50
2022-11-11T15:22:33.919Z,102521.66
2022-11-11T15:26:44.307Z,102517.97
2022-11-11T15:30:57.512Z,102518.97
2022-11-11T15:35:26.758Z,102529.81
2022-11-11T15:39:38.622Z,102533.78
2022-11-11T15:43:40.221Z,102530.06
2022-11-11T15:47:41.737Z,102526.94
2022-11-11T15:51:43.499Z,102531.91
2022-11-11T15:55:52.961Z,102530.72
2022-11-11T16:00:01.567Z,102534.44
2022-11-11T16:04:22.502Z,102539.53
2022-11-11T16:08:31.105Z,102539.91
2022-11-11T16:12:45.507Z,102535.06
2022-11-11T16:16:47.453Z,102538.97
2022-11-11T16:21:09.850Z,102545.06
2022-11-11T16:25:21.985Z,102534.75
2022-11-11T16:29:29.718Z,102538.03
2022-11-11T16:33:32.259Z,102541.25
2022-11-11T16:37:51.316Z,102532.31
2022-11-11T16:41:54.352Z,102534.88
2022-11-11T16:46:09.802Z,102542.66
2022-11-11T16:50:17.081Z,102545.22
2022-11-11T16:54:21.877Z,102539.28
2022-11-11T16:58:23.491Z,102542.47
2022-11-11T17:02:25.296Z,102546.59
2022-11-11T17:06:48.435Z,102549.38
2022-11-11T17:10:50.358Z,102550.00
2022-11-11T17:14:56.045Z,102543.56
2022-11-11T17:19:00.107Z,102552.34
2022-11-11T17:23:06.550Z,102551.75
2022-11-11T17:27:09.166Z,102565.06
2022-11-11T17:31:12.521Z,102566.81
2022-11-11T17:35:16.836Z,102554.59
2022-11-11T17:39:18.616Z,102552.41
2022-11-11T17:43:20.481Z,102560.44
2022-11-11T17:47:22.043Z,102562.09
2022-11-11T17:51:24.689Z,102558.19
2022-11-11T17:55:26.275Z,102558.75
2022-11-11T17:59:29.410Z,102559.03
2022-11-11T18:03:31.204Z,102566.00
2022-11-11T18:07:33.090Z,102565.38
2022-11-11T18:11:36.483Z,102567.25
2022-11-11T18:15:37.976Z,102581.41
2022-11-11T18:19:39.462Z,102582.66
2022-11-11T18:23:40.983Z,102582.78
2022-11-11T18:27:42.469Z,102593.91
2022-11-11T18:31:43.971Z,102583.09
2022-11-11T18:35:45.422Z,102590.09
2022-11-11T18:39:46.859Z,102592.63
2022-11-11T18:43:49.679Z,102589.34
2022-11-11T18:47:51.276Z,102601.00
2022-11-11T18:51:52.773Z,102596.06
2022-11-11T18:55:54.189Z,102608.75
2022-11-11T18:59:55.742Z,102602.25
2022-11-11T19:04:02.628Z,102609.53
2022-11-11T19:08:05.025Z,102610.97
2022-11-11T19:12:06.603Z,102612.75
2022-11-11T19:16:11.530Z,102619.53
2022-11-11T19:20:12.984Z,102624.50
2022-11-11T19:24:15.373Z,102628.22
2022-11-11T19:28:16.836Z,102630.13
2022-11-11T19:32:18.327Z,102627.22
2022-11-11T19:36:23.771Z,102636.34
2022-11-11T19:40:25.235Z,102639.63
2022-11-11T19:44:26.713Z,102648.13
2022-11-11T19:48:28.233Z,102649.34
2022-11-11T19:52:30.139Z,102640.25
2022-11-11T19:56:31.809Z,102642.81
2022-11-11T20:00:33.289Z,102640.47
2022-11-11T20:04:34.776Z,102645.59
2022-11-11T20:08:36.300Z,102652.94
2022-11-11T20:12:37.696Z,102658.34
2022-11-11T20:16:39.296Z,102664.50
2022-11-11T20:20:40.741Z,102660.00
2022-11-11T20:24:42.262Z,102662.47
2022-11-11T20:28:44.640Z,102664.56
2022-11-11T20:32:46.163Z,102677.53
2022-11-11T20:36:47.703Z,102668.91
2022-11-11T20:40:58.180Z,102670.91
2022-11-11T20:44:59.746Z,102678.66
2022-11-11T20:49:01.531Z,102676.66
2022-11-11T20:53:02.969Z,102684.44
2022-11-11T20:57:04.709Z,102683.34
2022-11-11T21:01:12.583Z,102679.47
2022-11-11T21:05:16.894Z,102675.41
2022-11-11T21:09:18.669Z,102682.94
2022-11-11T21:13:20.180Z,102683.59
2022-11-11T21:17:21.745Z,102684.25
2022-11-11T21:21:32.431Z,102687.44
2022-11-11T21:25:34.101Z,102688.34
2022-11-11T21:29:35.708Z,102692.69
2022-11-11T21:33:37.452Z,102688.56
2022-11-11T21:37:38.950Z,102694.09
2022-11-11T21:41:41.316Z,102687.22
2022-11-11T21:45:42.921Z,102696.31
2022-11-11T21:49:44.529Z,102688.13
2022-11-11T21:53:52.548Z,102690.16
2022-11-11T21:57:54.007Z,102694.31
2022-11-11T22:01:55.529Z,102698.09
2022-11-11T22:06:01.972Z,102704.56
2022-11-11T22:10:03.752Z,102695.91
2022-11-11T22:14:06.065Z,102704.53
2022-11-11T22:18:07.588Z,102696.13
2022-11-11T22:22:08.989Z,102698.69
2022-11-11T22:26:12.262Z,102699.84
2022-11-11T22:30:13.892Z,102702.72
2022-11-11T22:34:15.654Z,102705.50
2022-11-11T22:38:17.102Z,102708.75
2022-11-11T22:42:18.591Z,102711.25
2022-11-11T22:46:21.751Z,102706.56
2022-11-11T22:50:23.195Z,102713.00
2022-11-11T22:54:24.660Z,102700.84
2022-11-11T22:58:26.256Z,102712.13
2022-11-11T23:02:27.903Z,102714.09
2022-11-11T23:06:32.310Z,102707.31
2022-11-11T23:10:33.736Z,102712.84
2022-11-11T23:14:35.191Z,102703.78
2022-11-11T23:18:36.803Z,102710.13
2022-11-11T23:22:38.234Z,102710.38
2022-11-11T23:26:39.758Z,102708.16
2022-11-11T23:30:41.256Z,102708.44
2022-11-11T23:34:42.703Z,102708.22
2022-11-11T23:38:44.197Z,102700.81
2022-11-11T23:42:45.628Z,102713.47
2022-11-11T23:46:47.190Z,102709.69
2022-11-11T23:50:49.371Z,102708.31
2022-11-11T23:54:50.828Z,102708.28
2022-11-11T23:58:52.382Z,102706.38
